createdAt,value
2019-04-30T00:02:20.070Z,17.17
2019-04-30T00:04:49.439Z,18.37
2019-04-30T00:07:19.081Z,19.48
2019-04-30T00:09:49.200Z,17.00
2019-04-30T00:12:16.525Z,19.73
2019-04-30T00:14:44.897Z,15.90
2019-04-30T00:17:15.920Z,18.25
2019-04-30T00:19:42.251Z,19.95
2019-04-30T00:22:10.055Z,18.02
2019-04-30T00:24:39.968Z,17.15
2019-04-30T00:27:07.029Z,17.90
2019-04-30T00:29:35.605Z,14.45
2019-04-30T00:32:07.699Z,20.97
2019-04-30T00:34:35.866Z,18.00
2019-04-30T00:37:07.351Z,18.48
2019-04-30T00:39:33.217Z,18.87
2019-04-30T00:42:00.682Z,16.65
2019-04-30T00:44:28.521Z,18.62
2019-04-30T00:47:00.629Z,16.73
2019-04-30T00:49:26.675Z,17.50
2019-04-30T00:51:58.083Z,18.95
2019-04-30T00:54:27.975Z,23.98
2019-04-30T00:56:57.538Z,20.88
2019-04-30T00:59:24.947Z,22.48
2019-04-30T01:02:10.785Z,25.15
2019-04-30T01:04:40.179Z,22.37
2019-04-30T01:07:09.104Z,24.23
2019-04-30T01:09:39.543Z,26.00
2019-04-30T01:12:06.309Z,23.30
2019-04-30T01:14:34.113Z,22.27
2019-04-30T01:17:03.849Z,23.65
2019-04-30T01:19:32.880Z,26.55
2019-04-30T01:22:00.726Z,22.35
2019-04-30T01:24:31.433Z,25.32
2019-04-30T01:27:02.124Z,24.98
2019-04-30T01:29:31.146Z,26.07
2019-04-30T01:31:56.562Z,23.83
2019-04-30T01:34:24.255Z,24.65
2019-04-30T01:36:52.309Z,24.37
2019-04-30T01:39:23.768Z,25.60
2019-04-30T01:41:49.213Z,24.05
2019-04-30T01:44:16.841Z,24.87
2019-04-30T01:46:48.282Z,25.60
2019-04-30T01:49:13.766Z,24.47
2019-04-30T01:51:41.352Z,21.85
2019-04-30T01:54:09.277Z,26.90
2019-04-30T01:56:53.794Z,24.25
2019-04-30T01:59:29.200Z,27.15
2019-04-30T02:01:58.321Z,23.92
2019-04-30T02:04:26.245Z,25.85
2019-04-30T02:06:53.722Z,26.57
2019-04-30T02:09:21.292Z,24.12
2019-04-30T02:11:48.915Z,27.05
2019-04-30T02:14:16.457Z,26.80
2019-04-30T02:16:43.953Z,29.25
2019-04-30T02:19:11.526Z,28.57
2019-04-30T02:21:39.295Z,29.12
2019-04-30T02:24:08.995Z,29.57
2019-04-30T02:26:36.378Z,34.30
2019-04-30T02:29:03.933Z,31.17
2019-04-30T02:31:31.491Z,28.77
2019-04-30T02:34:00.949Z,31.17
2019-04-30T02:36:45.704Z,31.12
2019-04-30T02:39:13.330Z,31.27
2019-04-30T02:41:41.408Z,37.45
2019-04-30T02:44:09.775Z,34.50
2019-04-30T02:46:40.680Z,30.12
2019-04-30T02:49:10.719Z,28.80
2019-04-30T02:51:39.981Z,32.85
2019-04-30T02:54:12.666Z,37.15
2019-04-30T02:56:42.191Z,32.65
2019-04-30T02:59:10.359Z,33.70
2019-04-30T03:01:40.229Z,36.55
2019-04-30T03:04:09.834Z,34.55
2019-04-30T03:06:40.129Z,33.95
2019-04-30T03:09:10.008Z,39.80
2019-04-30T03:11:36.630Z,37.70
2019-04-30T03:14:04.249Z,35.80
2019-04-30T03:16:33.631Z,34.58
2019-04-30T03:19:12.266Z,31.93
2019-04-30T03:21:44.797Z,32.40
2019-04-30T03:24:12.297Z,36.13
2019-04-30T03:26:40.188Z,38.33
2019-04-30T03:29:10.998Z,37.50
2019-04-30T03:31:42.839Z,34.00
2019-04-30T03:34:17.047Z,34.63
2019-04-30T03:36:36.738Z,31.55
2019-04-30T03:39:05.362Z,38.73
2019-04-30T03:41:33.456Z,36.68
2019-04-30T03:44:16.772Z,37.40
2019-04-30T03:46:30.705Z,39.88
2019-04-30T03:49:00.174Z,38.83
2019-04-30T03:51:29.871Z,35.25
2019-04-30T03:53:59.594Z,34.67
2019-04-30T03:56:29.628Z,37.35
2019-04-30T03:58:56.193Z,37.13
2019-04-30T04:01:39.850Z,39.27
2019-04-30T04:04:21.067Z,44.23
2019-04-30T04:07:07.292Z,37.75
2019-04-30T04:09:53.383Z,38.90
2019-04-30T04:12:22.610Z,42.30
2019-04-30T04:14:51.239Z,41.65
2019-04-30T04:17:20.379Z,36.85
2019-04-30T04:19:51.282Z,36.08
2019-04-30T04:24:43.839Z,40.40
2019-04-30T04:27:11.908Z,37.23
2019-04-30T04:29:40.336Z,36.95
2019-04-30T04:32:10.548Z,41.18
2019-04-30T04:34:40.050Z,38.38
2019-04-30T04:37:10.100Z,38.17
2019-04-30T04:39:41.930Z,41.30
2019-04-30T04:42:10.145Z,35.88
2019-04-30T04:44:39.918Z,38.02
2019-04-30T04:47:11.638Z,36.38
2019-04-30T04:49:39.656Z,34.50
2019-04-30T04:52:06.492Z,33.67
2019-04-30T04:54:34.063Z,35.68
2019-04-30T04:57:13.198Z,34.20
2019-04-30T04:59:32.164Z,38.98
2019-04-30T05:02:01.751Z,33.63
2019-04-30T05:04:31.124Z,32.60
2019-04-30T05:07:00.029Z,29.90
2019-04-30T05:09:28.598Z,35.08
2019-04-30T05:11:56.458Z,30.57
2019-04-30T05:14:24.200Z,32.33
2019-04-30T05:16:51.954Z,32.65
2019-04-30T05:19:20.974Z,32.33
2019-04-30T05:21:49.503Z,29.98
2019-04-30T05:24:19.007Z,27.35
2019-04-30T05:26:48.728Z,27.40
2019-04-30T05:29:16.626Z,27.37
2019-04-30T05:31:44.306Z,26.77
2019-04-30T05:34:12.259Z,25.37
2019-04-30T05:36:39.724Z,28.75
2019-04-30T05:39:08.679Z,32.65
2019-04-30T05:41:36.320Z,24.60
2019-04-30T05:44:04.091Z,25.12
2019-04-30T05:46:31.957Z,22.75
2019-04-30T05:48:59.571Z,26.52
2019-04-30T05:51:28.894Z,26.82
2019-04-30T05:53:56.514Z,25.00
2019-04-30T05:56:24.004Z,24.55
2019-04-30T05:58:51.635Z,25.77
2019-04-30T06:01:19.755Z,28.30
2019-04-30T06:03:48.403Z,26.45
2019-04-30T06:06:16.030Z,27.90
2019-04-30T06:08:49.103Z,31.90
2019-04-30T06:11:19.330Z,32.23
2019-04-30T06:13:54.528Z,36.03
2019-04-30T06:16:23.964Z,91.82
2019-04-30T06:18:51.652Z,32.70
2019-04-30T06:21:21.598Z,28.12
2019-04-30T06:23:49.283Z,28.55
2019-04-30T06:26:17.141Z,27.30
2019-04-30T06:28:44.635Z,27.52
2019-04-30T06:31:12.591Z,28.87
2019-04-30T06:33:40.230Z,29.92
2019-04-30T06:36:08.561Z,23.62
2019-04-30T06:38:38.706Z,25.92
2019-04-30T06:41:08.587Z,25.95
2019-04-30T06:43:36.039Z,27.60
2019-04-30T06:46:03.890Z,25.30
2019-04-30T06:48:31.632Z,26.07
2019-04-30T06:50:59.314Z,26.90
2019-04-30T06:53:29.219Z,23.45
2019-04-30T06:55:58.858Z,25.37
2019-04-30T06:58:26.676Z,27.40
2019-04-30T07:00:54.142Z,25.77
2019-04-30T07:03:21.611Z,25.32
2019-04-30T07:05:49.270Z,27.58
2019-04-30T07:08:39.786Z,23.32
2019-04-30T07:11:16.697Z,24.67
2019-04-30T07:13:46.248Z,24.57
2019-04-30T07:16:14.032Z,22.05
2019-04-30T07:18:41.703Z,22.67
2019-04-30T07:21:09.285Z,22.58
2019-04-30T07:23:38.746Z,19.98
2019-04-30T07:26:06.366Z,19.98
2019-04-30T07:28:46.579Z,21.77
2019-04-30T07:31:11.356Z,20.95
2019-04-30T07:33:32.885Z,22.42
2019-04-30T07:36:01.818Z,16.23
2019-04-30T07:38:29.656Z,13.95
2019-04-30T07:40:59.053Z,14.73
2019-04-30T07:43:28.814Z,14.38
2019-04-30T07:45:56.291Z,17.67
2019-04-30T07:48:26.405Z,17.07
2019-04-30T07:50:53.304Z,14.30
2019-04-30T07:53:20.867Z,13.85
2019-04-30T07:55:49.430Z,12.35
2019-04-30T07:58:20.235Z,13.95
2019-04-30T08:00:47.371Z,15.90
2019-04-30T08:03:30.981Z,15.13
2019-04-30T08:06:00.963Z,14.25
2019-04-30T08:08:30.368Z,13.65
2019-04-30T08:10:59.210Z,12.50
2019-04-30T08:13:31.992Z,15.08
2019-04-30T08:15:56.525Z,15.38
2019-04-30T08:18:24.089Z,48.80
2019-04-30T08:20:51.747Z,13.43
2019-04-30T08:23:33.458Z,17.10
2019-04-30T08:25:48.970Z,12.53
2019-04-30T08:28:18.734Z,20.90
2019-04-30T08:30:46.473Z,29.98
2019-04-30T08:33:13.964Z,23.45
2019-04-30T08:35:41.724Z,22.73
2019-04-30T08:38:10.815Z,12.43
2019-04-30T08:40:43.114Z,11.35
2019-04-30T08:43:09.548Z,12.35
2019-04-30T08:45:38.594Z,10.18
2019-04-30T08:48:06.204Z,14.03
2019-04-30T08:50:33.876Z,10.75
2019-04-30T08:53:01.363Z,11.83
2019-04-30T08:55:30.435Z,9.23
2019-04-30T08:58:09.653Z,11.22
2019-04-30T09:00:29.689Z,9.83
2019-04-30T09:02:59.182Z,10.28
2019-04-30T09:05:34.729Z,8.80
2019-04-30T09:08:03.082Z,9.03
2019-04-30T09:10:30.546Z,10.40
2019-04-30T09:12:59.754Z,11.70
2019-04-30T09:15:29.090Z,8.03
2019-04-30T09:18:03.106Z,9.18
2019-04-30T09:20:26.344Z,7.62
2019-04-30T09:22:54.034Z,7.80
2019-04-30T09:25:21.612Z,8.75
2019-04-30T09:27:49.086Z,9.40
2019-04-30T09:30:18.641Z,7.95
2019-04-30T09:32:46.154Z,8.58
2019-04-30T09:35:13.632Z,8.95
2019-04-30T09:37:41.763Z,9.33
2019-04-30T09:40:17.705Z,8.50
2019-04-30T09:42:39.104Z,8.60
2019-04-30T09:45:08.302Z,9.25
2019-04-30T09:47:36.478Z,8.33
2019-04-30T09:50:04.062Z,10.13
2019-04-30T09:52:31.919Z,8.75
2019-04-30T09:55:00.313Z,11.30
2019-04-30T09:57:29.356Z,8.75
2019-04-30T09:59:56.952Z,8.78
2019-04-30T10:02:24.639Z,10.13
2019-04-30T10:04:52.738Z,9.35
2019-04-30T10:07:20.593Z,12.05
2019-04-30T10:09:50.617Z,14.33
2019-04-30T10:12:19.519Z,14.00
2019-04-30T10:14:49.274Z,15.53
2019-04-30T10:17:27.792Z,20.72
2019-04-30T10:19:55.484Z,15.08
2019-04-30T10:22:23.779Z,18.45
2019-04-30T10:24:51.349Z,17.17
2019-04-30T10:27:19.232Z,15.18
2019-04-30T10:29:49.277Z,13.78
2019-04-30T10:32:18.700Z,16.95
2019-04-30T10:34:46.412Z,18.17
2019-04-30T10:37:14.022Z,21.70
2019-04-30T10:39:41.877Z,27.48
2019-04-30T10:42:09.484Z,34.35
2019-04-30T10:44:36.996Z,19.12
2019-04-30T10:47:04.586Z,32.17
2019-04-30T10:49:32.136Z,22.58
2019-04-30T10:52:01.143Z,20.62
2019-04-30T10:54:29.081Z,19.35
2019-04-30T10:56:58.951Z,19.35
2019-04-30T10:59:26.375Z,18.30
2019-04-30T11:01:54.041Z,20.65
2019-04-30T11:04:21.753Z,23.32
2019-04-30T11:06:51.293Z,18.67
2019-04-30T11:09:18.894Z,18.12
2019-04-30T11:11:46.680Z,21.85
2019-04-30T11:14:14.165Z,15.58
2019-04-30T11:16:41.781Z,17.80
2019-04-30T11:19:09.747Z,13.68
2019-04-30T11:21:37.706Z,12.53
2019-04-30T11:24:05.680Z,10.85
2019-04-30T11:26:34.150Z,12.05
2019-04-30T11:29:02.166Z,11.88
2019-04-30T11:31:31.887Z,11.22
2019-04-30T11:34:01.549Z,11.20
2019-04-30T11:36:29.314Z,12.73
2019-04-30T11:38:58.652Z,14.28
2019-04-30T11:41:30.952Z,15.50
2019-04-30T11:43:56.301Z,15.10
2019-04-30T11:46:28.697Z,18.12
2019-04-30T11:48:56.388Z,17.40
2019-04-30T11:51:23.899Z,22.58
2019-04-30T11:53:51.484Z,20.20
2019-04-30T11:56:19.241Z,18.65
2019-04-30T11:58:48.784Z,17.67
2019-04-30T12:01:19.491Z,19.32
2019-04-30T12:03:47.140Z,20.40
2019-04-30T12:06:14.741Z,20.48
2019-04-30T12:08:50.177Z,22.30
2019-04-30T12:11:19.665Z,25.25
2019-04-30T12:13:47.330Z,28.02
2019-04-30T12:16:14.929Z,26.95
2019-04-30T12:18:42.695Z,24.87
2019-04-30T12:21:10.403Z,26.25
2019-04-30T12:23:38.046Z,24.85
2019-04-30T12:26:05.899Z,28.57
2019-04-30T12:28:33.359Z,22.48
2019-04-30T12:31:01.051Z,22.07
2019-04-30T12:33:28.745Z,24.12
2019-04-30T12:35:56.410Z,27.42
2019-04-30T12:38:25.137Z,22.67
2019-04-30T12:40:52.707Z,23.27
2019-04-30T12:43:20.471Z,26.17
2019-04-30T12:46:01.897Z,23.80
2019-04-30T12:48:31.997Z,22.67
2019-04-30T12:51:11.598Z,22.62
2019-04-30T12:53:46.791Z,24.30
2019-04-30T12:56:27.019Z,27.00
2019-04-30T12:58:51.607Z,26.93
2019-04-30T13:01:19.337Z,28.40
2019-04-30T13:03:55.913Z,29.12
2019-04-30T13:06:16.848Z,26.10
2019-04-30T13:08:45.181Z,25.10
2019-04-30T13:11:13.670Z,28.47
2019-04-30T13:13:42.290Z,29.32
2019-04-30T13:16:10.425Z,24.92
2019-04-30T13:18:39.377Z,28.17
2019-04-30T13:21:08.589Z,29.70
2019-04-30T13:23:36.411Z,30.30
2019-04-30T13:26:03.999Z,35.13
2019-04-30T13:28:39.492Z,26.12
2019-04-30T13:31:09.201Z,24.10
2019-04-30T13:33:41.609Z,26.30
2019-04-30T13:38:52.307Z,25.35
2019-04-30T13:41:24.782Z,29.63
2019-04-30T13:43:54.259Z,26.12
2019-04-30T13:46:22.411Z,26.55
2019-04-30T13:48:49.905Z,22.27
2019-04-30T13:51:17.472Z,25.37
2019-04-30T13:53:45.152Z,24.90
2019-04-30T13:56:12.696Z,23.80
2019-04-30T13:58:40.268Z,22.42
2019-04-30T14:01:07.905Z,21.82
2019-04-30T14:03:46.504Z,22.70
2019-04-30T14:06:16.154Z,21.23
2019-04-30T14:08:45.548Z,24.35
2019-04-30T14:11:13.309Z,21.12
2019-04-30T14:13:41.026Z,19.90
2019-04-30T14:16:08.597Z,22.62
2019-04-30T14:18:36.062Z,21.33
2019-04-30T14:21:03.639Z,19.92
2019-04-30T14:23:31.207Z,22.93
2019-04-30T14:26:00.870Z,25.12
2019-04-30T14:28:29.156Z,16.67
2019-04-30T14:30:57.010Z,17.60
2019-04-30T14:33:26.808Z,22.90
2019-04-30T14:35:54.059Z,22.42
2019-04-30T14:38:21.740Z,19.25
2019-04-30T14:40:50.882Z,23.67
2019-04-30T14:43:23.730Z,20.37
2019-04-30T14:46:04.023Z,22.42
2019-04-30T14:48:37.686Z,24.90
2019-04-30T14:51:05.935Z,24.07
2019-04-30T14:53:35.489Z,24.40
2019-04-30T14:56:22.921Z,23.00
2019-04-30T14:58:52.393Z,23.80
2019-04-30T15:01:24.887Z,23.57
2019-04-30T15:03:53.681Z,21.90
2019-04-30T15:06:21.227Z,22.98
2019-04-30T15:08:49.507Z,21.68
2019-04-30T15:11:18.963Z,24.05
2019-04-30T15:13:49.394Z,23.80
2019-04-30T15:16:17.135Z,24.18
2019-04-30T15:18:44.860Z,23.65
2019-04-30T15:21:12.594Z,26.00
2019-04-30T15:23:41.990Z,24.90
2019-04-30T15:26:21.718Z,30.02
2019-04-30T15:28:41.396Z,26.57
2019-04-30T15:31:08.812Z,26.70
2019-04-30T15:33:38.387Z,24.90
2019-04-30T15:36:06.055Z,27.73
2019-04-30T15:38:52.381Z,29.80
2019-04-30T15:41:20.550Z,27.62
2019-04-30T15:43:49.264Z,20.85
2019-04-30T15:46:16.843Z,21.57
2019-04-30T15:48:44.514Z,20.05
2019-04-30T15:51:12.303Z,96.55
2019-04-30T15:53:40.962Z,21.25
2019-04-30T15:56:08.662Z,22.62
2019-04-30T15:58:38.910Z,27.82
2019-04-30T16:01:09.033Z,25.32
2019-04-30T16:03:42.590Z,29.23
2019-04-30T16:06:10.480Z,23.27
2019-04-30T16:08:43.317Z,20.95
2019-04-30T16:11:15.493Z,21.20
2019-04-30T16:13:49.429Z,25.17
2019-04-30T16:16:19.214Z,25.92
2019-04-30T16:18:49.536Z,26.65
2019-04-30T16:21:19.204Z,31.00
2019-04-30T16:23:48.545Z,24.60
2019-04-30T16:26:16.123Z,30.23
2019-04-30T16:28:43.859Z,28.07
2019-04-30T16:31:11.758Z,19.67
2019-04-30T16:33:39.427Z,23.25
2019-04-30T16:36:08.678Z,36.17
2019-04-30T16:38:38.596Z,21.05
2019-04-30T16:41:08.903Z,25.68
2019-04-30T16:43:38.741Z,40.75
2019-04-30T16:46:06.096Z,39.03
2019-04-30T16:48:33.601Z,24.60
2019-04-30T16:51:01.198Z,38.05
2019-04-30T16:53:28.732Z,23.30
2019-04-30T16:55:58.530Z,22.48
2019-04-30T16:58:25.982Z,21.27
2019-04-30T17:00:53.439Z,20.52
2019-04-30T17:03:22.799Z,23.73
2019-04-30T17:05:52.311Z,18.82
2019-04-30T17:08:21.883Z,23.47
2019-04-30T17:10:54.327Z,19.07
2019-04-30T17:13:23.793Z,22.58
2019-04-30T17:15:56.039Z,22.58
2019-04-30T17:18:23.743Z,22.98
2019-04-30T17:20:51.726Z,18.82
2019-04-30T17:23:20.083Z,25.45
2019-04-30T17:25:49.085Z,19.07
2019-04-30T17:28:18.662Z,18.67
2019-04-30T17:30:46.324Z,20.65
2019-04-30T17:33:14.076Z,22.10
2019-04-30T17:35:41.662Z,23.65
2019-04-30T17:38:09.245Z,19.40
2019-04-30T17:40:36.716Z,21.97
2019-04-30T17:43:04.295Z,20.02
2019-04-30T17:45:31.960Z,21.00
2019-04-30T17:47:59.768Z,23.60
2019-04-30T17:50:29.173Z,20.02
2019-04-30T17:53:00.476Z,17.60
2019-04-30T17:55:26.570Z,21.95
2019-04-30T17:57:55.052Z,22.82
2019-04-30T18:00:23.011Z,20.32
2019-04-30T18:02:50.810Z,20.62
2019-04-30T18:05:19.457Z,22.58
2019-04-30T18:07:49.618Z,24.75
2019-04-30T18:10:16.969Z,24.27
2019-04-30T18:12:44.820Z,24.20
2019-04-30T18:15:17.429Z,25.00
2019-04-30T18:17:46.916Z,24.23
2019-04-30T18:20:16.780Z,27.87
2019-04-30T18:22:46.461Z,29.48
2019-04-30T18:25:34.100Z,28.15
2019-04-30T18:28:03.634Z,33.83
2019-04-30T18:30:33.301Z,38.80
2019-04-30T18:33:01.076Z,28.87
2019-04-30T18:35:28.771Z,25.55
2019-04-30T18:37:58.458Z,28.10
2019-04-30T18:40:26.156Z,24.75
2019-04-30T18:42:53.976Z,22.75
2019-04-30T18:45:21.872Z,27.80
2019-04-30T18:47:49.535Z,27.85
2019-04-30T18:50:17.138Z,23.35
2019-04-30T18:52:50.359Z,25.05
2019-04-30T18:55:16.859Z,29.23
2019-04-30T18:57:56.069Z,24.15
2019-04-30T19:00:15.846Z,25.08
2019-04-30T19:02:43.532Z,25.65
2019-04-30T19:05:13.157Z,26.65
2019-04-30T19:07:45.509Z,27.10
2019-04-30T19:10:23.722Z,23.98
2019-04-30T19:12:56.111Z,23.70
2019-04-30T19:15:41.005Z,26.12
2019-04-30T19:17:56.182Z,24.90
2019-04-30T19:20:31.324Z,24.75
2019-04-30T19:22:58.938Z,22.48
2019-04-30T19:25:28.786Z,24.92
2019-04-30T19:28:09.405Z,26.10
2019-04-30T19:30:25.760Z,27.32
2019-04-30T19:32:53.433Z,24.00
2019-04-30T19:35:20.954Z,26.48
2019-04-30T19:37:48.806Z,25.12
2019-04-30T19:40:16.560Z,27.50
2019-04-30T19:42:44.360Z,23.50
2019-04-30T19:45:13.361Z,23.05
2019-04-30T19:47:41.048Z,24.57
2019-04-30T19:50:09.431Z,24.98
2019-04-30T19:52:37.150Z,25.15
2019-04-30T19:55:04.848Z,27.20
2019-04-30T19:57:32.530Z,26.12
2019-04-30T20:00:00.161Z,23.52
2019-04-30T20:02:29.483Z,25.50
2019-04-30T20:04:59.056Z,25.00
2019-04-30T20:07:26.755Z,27.22
2019-04-30T20:10:03.214Z,24.92
2019-04-30T20:12:24.036Z,24.57
2019-04-30T20:14:51.820Z,28.32
2019-04-30T20:17:19.546Z,25.48
2019-04-30T20:19:48.939Z,24.65
2019-04-30T20:22:16.755Z,26.75
2019-04-30T20:24:44.560Z,24.25
2019-04-30T20:27:12.397Z,25.25
2019-04-30T20:29:40.906Z,24.47
2019-04-30T20:32:08.765Z,28.55
2019-04-30T20:34:36.459Z,22.90
2019-04-30T20:37:04.127Z,27.15
2019-04-30T20:39:49.331Z,24.67
2019-04-30T20:42:16.968Z,24.40
2019-04-30T20:44:45.780Z,25.72
2019-04-30T20:47:13.529Z,25.12
2019-04-30T20:49:41.238Z,24.80
2019-04-30T20:52:08.911Z,23.12
2019-04-30T20:54:36.505Z,25.48
2019-04-30T20:57:03.992Z,29.02
2019-04-30T20:59:31.556Z,25.20
2019-04-30T21:01:59.064Z,26.15
2019-04-30T21:04:26.735Z,23.27
2019-04-30T21:06:54.337Z,25.85
2019-04-30T21:09:21.937Z,24.57
2019-04-30T21:11:49.615Z,23.87
2019-04-30T21:14:19.283Z,25.52
2019-04-30T21:16:46.616Z,27.73
2019-04-30T21:19:14.370Z,23.98
2019-04-30T21:21:41.970Z,24.50
2019-04-30T21:24:09.770Z,28.47
2019-04-30T21:26:37.536Z,25.65
2019-04-30T21:29:13.166Z,25.72
2019-04-30T21:31:48.410Z,22.95
2019-04-30T21:34:24.099Z,24.37
2019-04-30T21:36:51.757Z,25.88
2019-04-30T21:39:20.131Z,22.85
2019-04-30T21:41:49.417Z,26.30
2019-04-30T21:44:17.179Z,24.20
2019-04-30T21:46:45.176Z,24.32
2019-04-30T21:49:12.768Z,22.95
2019-04-30T21:51:40.385Z,25.08
2019-04-30T21:54:08.040Z,22.75
2019-04-30T21:56:35.792Z,25.77
2019-04-30T21:59:03.273Z,26.57
2019-04-30T22:01:30.951Z,24.52
2019-04-30T22:04:00.465Z,22.55
2019-04-30T22:06:29.608Z,24.57
2019-04-30T22:08:58.668Z,26.33
2019-04-30T22:11:26.354Z,26.62
2019-04-30T22:13:53.992Z,27.00
2019-04-30T22:16:21.684Z,26.77
2019-04-30T22:18:50.350Z,23.67
2019-04-30T22:21:18.027Z,26.05
2019-04-30T22:23:45.825Z,25.57
2019-04-30T22:26:13.419Z,26.60
2019-04-30T22:28:41.318Z,25.68
2019-04-30T22:31:08.918Z,27.90
2019-04-30T22:33:36.596Z,28.73
2019-04-30T22:36:14.879Z,27.48
2019-04-30T22:38:50.561Z,28.07
2019-04-30T22:41:20.168Z,27.73
2019-04-30T22:43:48.123Z,25.43
2019-04-30T22:46:19.376Z,29.48
2019-04-30T22:48:47.195Z,28.77
2019-04-30T22:51:14.815Z,27.98
2019-04-30T22:53:42.758Z,28.57
2019-04-30T22:56:11.709Z,26.55
2019-04-30T22:58:39.356Z,27.17
2019-04-30T23:01:24.023Z,30.27
2019-04-30T23:03:53.661Z,33.65
2019-04-30T23:06:21.323Z,32.63
2019-04-30T23:08:49.271Z,29.45
2019-04-30T23:11:17.186Z,31.97
2019-04-30T23:13:44.794Z,30.30
2019-04-30T23:16:12.467Z,29.92
2019-04-30T23:18:40.050Z,34.10
2019-04-30T23:21:07.527Z,27.95
2019-04-30T23:23:35.031Z,30.17
2019-04-30T23:26:02.847Z,32.17
2019-04-30T23:28:30.317Z,32.95
2019-04-30T23:30:57.794Z,31.02
2019-04-30T23:33:25.384Z,31.10
2019-04-30T23:35:52.973Z,28.77
2019-04-30T23:38:20.552Z,35.33
2019-04-30T23:40:49.801Z,30.62
2019-04-30T23:43:17.647Z,31.55
2019-04-30T23:45:45.308Z,34.30
2019-04-30T23:48:12.970Z,33.78
2019-04-30T23:50:40.657Z,34.83
2019-04-30T23:53:08.753Z,28.73
2019-04-30T23:55:36.326Z,30.92
2019-04-30T23:58:03.957Z,30.48
